sensor_id;sensor_type;location;lat;lon;timestamp;temperature;humidity
17891;DHT22;9071;48.220;14.480;2022-11-15T00:00:40;4.20;99.90
17891;DHT22;9071;48.220;14.480;2022-11-15T00:05:42;4.20;99.90
17891;DHT22;9071;48.220;14.480;2022-11-15T00:10:54;4.10;99.90
17891;DHT22;9071;48.220;14.480;2022-11-15T00:15:58;4.00;99.90
17891;DHT22;9071;48.220;14.480;2022-11-15T00:21:04;3.80;99.90
17891;DHT22;9071;48.220;14.480;2022-11-15T00:26:09;3.70;99.90
17891;DHT22;9071;48.220;14.480;2022-11-15T00:31:14;3.80;99.90
17891;DHT22;9071;48.220;14.480;2022-11-15T00:36:16;3.70;99.90
17891;DHT22;9071;48.220;14.480;2022-11-15T00:41:18;3.80;99.90
17891;DHT22;9071;48.220;14.480;2022-11-15T00:46:22;3.90;99.90
17891;DHT22;9071;48.220;14.480;2022-11-15T00:51:24;3.80;99.90
17891;DHT22;9071;48.220;14.480;2022-11-15T00:56:26;3.70;99.90
17891;DHT22;9071;48.220;14.480;2022-11-15T01:01:29;3.70;99.90
17891;DHT22;9071;48.220;14.480;2022-11-15T01:06:31;3.50;99.90
17891;DHT22;9071;48.220;14.480;2022-11-15T01:11:33;3.40;99.90
17891;DHT22;9071;48.220;14.480;2022-11-15T01:16:37;3.40;99.90
17891;DHT22;9071;48.220;14.480;2022-11-15T01:21:39;3.50;99.90
17891;DHT22;9071;48.220;14.480;2022-11-15T01:26:41;3.50;99.90
17891;DHT22;9071;48.220;14.480;2022-11-15T01:31:44;3.40;99.90
17891;DHT22;9071;48.220;14.480;2022-11-15T01:36:47;3.40;99.90
17891;DHT22;9071;48.220;14.480;2022-11-15T01:41:49;3.40;99.90
17891;DHT22;9071;48.220;14.480;2022-11-15T01:46:52;3.50;99.90
17891;DHT22;9071;48.220;14.480;2022-11-15T01:51:54;3.40;99.90
17891;DHT22;9071;48.220;14.480;2022-11-15T01:57:00;3.30;99.90
17891;DHT22;9071;48.220;14.480;2022-11-15T02:02:04;3.30;99.90
17891;DHT22;9071;48.220;14.480;2022-11-15T02:07:09;3.30;99.90
17891;DHT22;9071;48.220;14.480;2022-11-15T02:12:13;3.40;99.90
17891;DHT22;9071;48.220;14.480;2022-11-15T02:17:45;3.50;99.90
17891;DHT22;9071;48.220;14.480;2022-11-15T02:28:38;3.80;99.90
17891;DHT22;9071;48.220;14.480;2022-11-15T02:33:50;3.90;99.90
17891;DHT22;9071;48.220;14.480;2022-11-15T02:38:59;3.80;99.90
17891;DHT22;9071;48.220;14.480;2022-11-15T02:44:08;3.70;99.90
17891;DHT22;9071;48.220;14.480;2022-11-15T02:49:15;3.60;99.90
17891;DHT22;9071;48.220;14.480;2022-11-15T02:54:20;3.50;99.90
17891;DHT22;9071;48.220;14.480;2022-11-15T03:05:13;3.30;99.90
17891;DHT22;9071;48.220;14.480;2022-11-15T03:10:22;3.20;99.90
17891;DHT22;9071;48.220;14.480;2022-11-15T03:15:29;3.00;99.90
17891;DHT22;9071;48.220;14.480;2022-11-15T03:20:35;2.90;99.90
17891;DHT22;9071;48.220;14.480;2022-11-15T03:25:41;2.80;99.90
17891;DHT22;9071;48.220;14.480;2022-11-15T03:30:46;2.80;99.90
17891;DHT22;9071;48.220;14.480;2022-11-15T03:35:52;2.80;99.90
17891;DHT22;9071;48.220;14.480;2022-11-15T03:40:59;2.70;99.90
17891;DHT22;9071;48.220;14.480;2022-11-15T03:46:05;2.60;99.90
17891;DHT22;9071;48.220;14.480;2022-11-15T03:51:11;2.50;99.90
17891;DHT22;9071;48.220;14.480;2022-11-15T03:56:13;2.50;99.90
17891;DHT22;9071;48.220;14.480;2022-11-15T04:01:15;2.50;99.90
17891;DHT22;9071;48.220;14.480;2022-11-15T04:06:18;2.40;99.90
17891;DHT22;9071;48.220;14.480;2022-11-15T04:11:20;2.40;99.90
17891;DHT22;9071;48.220;14.480;2022-11-15T04:16:22;2.40;99.90
17891;DHT22;9071;48.220;14.480;2022-11-15T04:21:26;2.50;99.90
17891;DHT22;9071;48.220;14.480;2022-11-15T04:26:45;2.70;99.90
17891;DHT22;9071;48.220;14.480;2022-11-15T04:31:47;2.70;99.90
17891;DHT22;9071;48.220;14.480;2022-11-15T04:36:51;2.60;99.90
17891;DHT22;9071;48.220;14.480;2022-11-15T04:42:10;2.50;99.90
17891;DHT22;9071;48.220;14.480;2022-11-15T04:47:12;2.50;99.90
17891;DHT22;9071;48.220;14.480;2022-11-15T04:52:16;2.40;99.90
17891;DHT22;9071;48.220;14.480;2022-11-15T04:57:18;2.30;99.90
17891;DHT22;9071;48.220;14.480;2022-11-15T05:02:20;2.10;99.90
17891;DHT22;9071;48.220;14.480;2022-11-15T05:07:23;2.00;99.90
17891;DHT22;9071;48.220;14.480;2022-11-15T05:12:25;2.00;99.90
17891;DHT22;9071;48.220;14.480;2022-11-15T05:17:27;2.00;99.90
17891;DHT22;9071;48.220;14.480;2022-11-15T05:22:30;2.00;99.90
17891;DHT22;9071;48.220;14.480;2022-11-15T05:27:33;1.90;99.90
17891;DHT22;9071;48.220;14.480;2022-11-15T05:32:35;2.00;99.90
17891;DHT22;9071;48.220;14.480;2022-11-15T05:37:39;2.00;99.90
17891;DHT22;9071;48.220;14.480;2022-11-15T05:42:42;2.10;99.90
17891;DHT22;9071;48.220;14.480;2022-11-15T05:47:44;2.60;99.90
17891;DHT22;9071;48.220;14.480;2022-11-15T05:52:49;3.20;99.90
17891;DHT22;9071;48.220;14.480;2022-11-15T05:57:52;3.60;99.90
17891;DHT22;9071;48.220;14.480;2022-11-15T06:02:54;3.90;99.90
17891;DHT22;9071;48.220;14.480;2022-11-15T06:07:58;4.20;99.90
17891;DHT22;9071;48.220;14.480;2022-11-15T06:13:01;4.40;99.90
17891;DHT22;9071;48.220;14.480;2022-11-15T06:18:04;4.60;99.90
17891;DHT22;9071;48.220;14.480;2022-11-15T06:23:07;4.70;99.90
17891;DHT22;9071;48.220;14.480;2022-11-15T06:28:09;4.80;99.90
17891;DHT22;9071;48.220;14.480;2022-11-15T06:33:11;4.90;99.90
17891;DHT22;9071;48.220;14.480;2022-11-15T06:38:15;5.00;99.90
17891;DHT22;9071;48.220;14.480;2022-11-15T06:43:17;5.10;99.90
17891;DHT22;9071;48.220;14.480;2022-11-15T06:48:19;5.10;99.90
17891;DHT22;9071;48.220;14.480;2022-11-15T06:53:23;5.10;99.90
17891;DHT22;9071;48.220;14.480;2022-11-15T06:58:25;5.20;99.90
17891;DHT22;9071;48.220;14.480;2022-11-15T07:03:27;5.30;99.90
17891;DHT22;9071;48.220;14.480;2022-11-15T07:08:30;5.40;99.90
17891;DHT22;9071;48.220;14.480;2022-11-15T07:13:33;5.50;99.90
17891;DHT22;9071;48.220;14.480;2022-11-15T07:18:36;5.60;99.90
17891;DHT22;9071;48.220;14.480;2022-11-15T07:23:40;5.60;99.90
17891;DHT22;9071;48.220;14.480;2022-11-15T07:28:42;5.70;99.90
17891;DHT22;9071;48.220;14.480;2022-11-15T07:33:44;5.80;99.90
17891;DHT22;9071;48.220;14.480;2022-11-15T07:38:49;5.80;99.90
17891;DHT22;9071;48.220;14.480;2022-11-15T07:43:51;5.80;99.90
17891;DHT22;9071;48.220;14.480;2022-11-15T07:48:54;5.90;99.90
17891;DHT22;9071;48.220;14.480;2022-11-15T07:53:57;5.90;99.90
17891;DHT22;9071;48.220;14.480;2022-11-15T07:58:59;5.90;99.90
17891;DHT22;9071;48.220;14.480;2022-11-15T08:04:01;6.00;99.90
17891;DHT22;9071;48.220;14.480;2022-11-15T08:09:05;6.00;99.90
17891;DHT22;9071;48.220;14.480;2022-11-15T08:14:07;6.10;99.90
17891;DHT22;9071;48.220;14.480;2022-11-15T08:19:09;6.10;99.90
17891;DHT22;9071;48.220;14.480;2022-11-15T08:24:12;6.20;99.90
17891;DHT22;9071;48.220;14.480;2022-11-15T08:29:14;6.20;99.90
17891;DHT22;9071;48.220;14.480;2022-11-15T08:34:16;6.20;99.90
17891;DHT22;9071;48.220;14.480;2022-11-15T08:39:20;6.30;99.90
17891;DHT22;9071;48.220;14.480;2022-11-15T08:44:22;6.30;99.90
17891;DHT22;9071;48.220;14.480;2022-11-15T08:49:24;6.40;99.90
17891;DHT22;9071;48.220;14.480;2022-11-15T08:54:27;6.40;99.90
17891;DHT22;9071;48.220;14.480;2022-11-15T08:59:30;6.40;99.90
17891;DHT22;9071;48.220;14.480;2022-11-15T09:04:33;6.50;99.90
17891;DHT22;9071;48.220;14.480;2022-11-15T09:09:37;6.60;99.90
17891;DHT22;9071;48.220;14.480;2022-11-15T09:14:39;6.70;99.90
17891;DHT22;9071;48.220;14.480;2022-11-15T09:19:41;6.70;99.90
17891;DHT22;9071;48.220;14.480;2022-11-15T09:24:44;6.70;99.90
17891;DHT22;9071;48.220;14.480;2022-11-15T09:29:46;6.80;99.90
17891;DHT22;9071;48.220;14.480;2022-11-15T09:34:49;6.70;99.90
17891;DHT22;9071;48.220;14.480;2022-11-15T09:39:52;6.80;99.90
17891;DHT22;9071;48.220;14.480;2022-11-15T09:45:07;6.70;99.90
17891;DHT22;9071;48.220;14.480;2022-11-15T09:50:15;6.60;99.90
17891;DHT22;9071;48.220;14.480;2022-11-15T09:55:20;6.70;99.90
17891;DHT22;9071;48.220;14.480;2022-11-15T10:00:30;6.70;99.90
17891;DHT22;9071;48.220;14.480;2022-11-15T10:05:38;6.80;99.90
17891;DHT22;9071;48.220;14.480;2022-11-15T10:10:44;6.90;99.90
17891;DHT22;9071;48.220;14.480;2022-11-15T10:15:48;6.90;99.90
17891;DHT22;9071;48.220;14.480;2022-11-15T10:20:55;7.00;99.90
17891;DHT22;9071;48.220;14.480;2022-11-15T10:26:00;7.00;99.90
17891;DHT22;9071;48.220;14.480;2022-11-15T10:31:21;7.00;99.90
17891;DHT22;9071;48.220;14.480;2022-11-15T10:36:24;6.90;99.90
17891;DHT22;9071;48.220;14.480;2022-11-15T10:41:34;7.10;99.90
17891;DHT22;9071;48.220;14.480;2022-11-15T10:46:39;7.20;99.90
17891;DHT22;9071;48.220;14.480;2022-11-15T10:51:44;7.10;99.90
17891;DHT22;9071;48.220;14.480;2022-11-15T10:56:51;7.10;99.90
17891;DHT22;9071;48.220;14.480;2022-11-15T11:01:53;7.10;99.90
17891;DHT22;9071;48.220;14.480;2022-11-15T11:06:57;7.10;99.90
17891;DHT22;9071;48.220;14.480;2022-11-15T11:12:01;7.10;99.90
17891;DHT22;9071;48.220;14.480;2022-11-15T11:17:11;7.00;99.90
17891;DHT22;9071;48.220;14.480;2022-11-15T11:22:22;7.00;99.90
17891;DHT22;9071;48.220;14.480;2022-11-15T11:27:36;7.00;99.90
17891;DHT22;9071;48.220;14.480;2022-11-15T11:33:15;7.00;99.90
17891;DHT22;9071;48.220;14.480;2022-11-15T11:38:28;7.00;99.90
17891;DHT22;9071;48.220;14.480;2022-11-15T11:43:47;7.10;99.90
17891;DHT22;9071;48.220;14.480;2022-11-15T11:48:55;7.10;99.90
17891;DHT22;9071;48.220;14.480;2022-11-15T11:54:01;7.10;99.90
17891;DHT22;9071;48.220;14.480;2022-11-15T11:59:12;7.10;99.90
17891;DHT22;9071;48.220;14.480;2022-11-15T12:04:21;7.20;99.90
17891;DHT22;9071;48.220;14.480;2022-11-15T12:09:32;7.20;99.90
17891;DHT22;9071;48.220;14.480;2022-11-15T12:14:42;7.20;99.90
17891;DHT22;9071;48.220;14.480;2022-11-15T12:19:45;7.30;99.90
17891;DHT22;9071;48.220;14.480;2022-11-15T12:24:51;7.30;99.90
17891;DHT22;9071;48.220;14.480;2022-11-15T12:30:07;7.30;99.90
17891;DHT22;9071;48.220;14.480;2022-11-15T12:35:24;7.40;99.90
17891;DHT22;9071;48.220;14.480;2022-11-15T12:40:29;7.30;99.90
17891;DHT22;9071;48.220;14.480;2022-11-15T12:45:34;7.40;99.90
17891;DHT22;9071;48.220;14.480;2022-11-15T12:50:54;7.40;99.90
17891;DHT22;9071;48.220;14.480;2022-11-15T12:56:22;7.50;99.90
17891;DHT22;9071;48.220;14.480;2022-11-15T13:02:00;7.60;99.90
17891;DHT22;9071;48.220;14.480;2022-11-15T13:07:04;7.60;99.90
17891;DHT22;9071;48.220;14.480;2022-11-15T13:12:08;7.70;99.90
17891;DHT22;9071;48.220;14.480;2022-11-15T13:17:42;7.70;99.90
17891;DHT22;9071;48.220;14.480;2022-11-15T13:22:46;7.80;99.90
17891;DHT22;9071;48.220;14.480;2022-11-15T13:27:57;7.70;99.90
17891;DHT22;9071;48.220;14.480;2022-11-15T13:33:09;7.70;99.90
17891;DHT22;9071;48.220;14.480;2022-11-15T13:38:19;7.70;99.90
17891;DHT22;9071;48.220;14.480;2022-11-15T13:43:31;7.70;99.90
17891;DHT22;9071;48.220;14.480;2022-11-15T13:48:35;7.80;99.90
17891;DHT22;9071;48.220;14.480;2022-11-15T13:53:40;7.80;99.90
17891;DHT22;9071;48.220;14.480;2022-11-15T13:58:43;7.80;99.90
17891;DHT22;9071;48.220;14.480;2022-11-15T14:03:53;7.80;99.90
17891;DHT22;9071;48.220;14.480;2022-11-15T14:09:30;7.80;99.90
17891;DHT22;9071;48.220;14.480;2022-11-15T14:14:33;7.70;99.90
17891;DHT22;9071;48.220;14.480;2022-11-15T14:19:47;7.70;99.90
17891;DHT22;9071;48.220;14.480;2022-11-15T14:25:14;7.60;99.90
17891;DHT22;9071;48.220;14.480;2022-11-15T14:30:17;7.50;99.90
17891;DHT22;9071;48.220;14.480;2022-11-15T14:35:22;7.40;99.90
17891;DHT22;9071;48.220;14.480;2022-11-15T14:40:24;7.50;99.90
17891;DHT22;9071;48.220;14.480;2022-11-15T14:45:27;7.40;99.90
17891;DHT22;9071;48.220;14.480;2022-11-15T14:50:32;7.30;99.90
17891;DHT22;9071;48.220;14.480;2022-11-15T14:55:35;7.30;99.90
17891;DHT22;9071;48.220;14.480;2022-11-15T15:00:39;7.40;99.90
17891;DHT22;9071;48.220;14.480;2022-11-15T15:05:43;7.40;99.90
17891;DHT22;9071;48.220;14.480;2022-11-15T15:10:46;7.40;99.90
17891;DHT22;9071;48.220;14.480;2022-11-15T15:15:49;7.40;99.90
17891;DHT22;9071;48.220;14.480;2022-11-15T15:20:57;7.30;99.90
17891;DHT22;9071;48.220;14.480;2022-11-15T15:26:00;7.30;99.90
17891;DHT22;9071;48.220;14.480;2022-11-15T15:31:02;7.30;99.90
17891;DHT22;9071;48.220;14.480;2022-11-15T15:36:09;7.30;99.90
17891;DHT22;9071;48.220;14.480;2022-11-15T15:41:13;7.30;99.90
17891;DHT22;9071;48.220;14.480;2022-11-15T15:46:17;7.30;99.90
17891;DHT22;9071;48.220;14.480;2022-11-15T15:51:20;7.30;99.90
17891;DHT22;9071;48.220;14.480;2022-11-15T15:56:22;7.30;99.90
17891;DHT22;9071;48.220;14.480;2022-11-15T16:01:25;7.30;99.90
17891;DHT22;9071;48.220;14.480;2022-11-15T16:06:36;7.30;99.90
17891;DHT22;9071;48.220;14.480;2022-11-15T16:11:39;7.30;99.90
17891;DHT22;9071;48.220;14.480;2022-11-15T16:16:42;7.30;99.90
17891;DHT22;9071;48.220;14.480;2022-11-15T16:21:45;7.30;99.90
17891;DHT22;9071;48.220;14.480;2022-11-15T16:26:47;7.40;99.90
17891;DHT22;9071;48.220;14.480;2022-11-15T16:31:50;7.40;99.90
17891;DHT22;9071;48.220;14.480;2022-11-15T16:36:54;7.40;99.90
17891;DHT22;9071;48.220;14.480;2022-11-15T16:41:56;7.40;99.90
17891;DHT22;9071;48.220;14.480;2022-11-15T16:46:58;7.40;99.90
17891;DHT22;9071;48.220;14.480;2022-11-15T16:52:02;7.40;99.90
17891;DHT22;9071;48.220;14.480;2022-11-15T16:57:04;7.40;99.90
17891;DHT22;9071;48.220;14.480;2022-11-15T17:02:11;7.40;99.90
17891;DHT22;9071;48.220;14.480;2022-11-15T17:07:15;7.40;99.90
17891;DHT22;9071;48.220;14.480;2022-11-15T17:12:17;7.40;99.90
17891;DHT22;9071;48.220;14.480;2022-11-15T17:17:19;7.40;99.90
17891;DHT22;9071;48.220;14.480;2022-11-15T17:22:23;7.40;99.90
17891;DHT22;9071;48.220;14.480;2022-11-15T17:27:25;7.40;99.90
17891;DHT22;9071;48.220;14.480;2022-11-15T17:32:27;7.40;99.90
17891;DHT22;9071;48.220;14.480;2022-11-15T17:37:30;7.40;99.90
17891;DHT22;9071;48.220;14.480;2022-11-15T17:42:32;7.50;99.90
17891;DHT22;9071;48.220;14.480;2022-11-15T17:47:34;7.40;99.90
17891;DHT22;9071;48.220;14.480;2022-11-15T17:52:38;7.50;99.90
17891;DHT22;9071;48.220;14.480;2022-11-15T17:57:40;7.40;99.90
17891;DHT22;9071;48.220;14.480;2022-11-15T18:02:44;7.50;99.90
17891;DHT22;9071;48.220;14.480;2022-11-15T18:07:47;7.50;99.90
17891;DHT22;9071;48.220;14.480;2022-11-15T18:12:49;7.40;99.90
17891;DHT22;9071;48.220;14.480;2022-11-15T18:17:51;7.50;99.90
17891;DHT22;9071;48.220;14.480;2022-11-15T18:22:55;7.50;99.90
17891;DHT22;9071;48.220;14.480;2022-11-15T18:27:57;7.50;99.90
17891;DHT22;9071;48.220;14.480;2022-11-15T18:32:59;7.50;99.90
17891;DHT22;9071;48.220;14.480;2022-11-15T18:38:02;7.50;99.90
17891;DHT22;9071;48.220;14.480;2022-11-15T18:43:04;7.50;99.90
17891;DHT22;9071;48.220;14.480;2022-11-15T18:48:06;7.50;99.90
17891;DHT22;9071;48.220;14.480;2022-11-15T18:53:10;7.50;99.90
17891;DHT22;9071;48.220;14.480;2022-11-15T18:58:12;7.50;99.90
17891;DHT22;9071;48.220;14.480;2022-11-15T19:03:14;7.50;99.90
17891;DHT22;9071;48.220;14.480;2022-11-15T19:08:17;7.50;99.90
17891;DHT22;9071;48.220;14.480;2022-11-15T19:13:20;7.40;99.90
17891;DHT22;9071;48.220;14.480;2022-11-15T19:18:22;7.50;99.90
17891;DHT22;9071;48.220;14.480;2022-11-15T19:23:25;7.40;99.90
17891;DHT22;9071;48.220;14.480;2022-11-15T19:28:27;7.50;99.90
17891;DHT22;9071;48.220;14.480;2022-11-15T19:33:30;7.40;99.90
17891;DHT22;9071;48.220;14.480;2022-11-15T19:38:34;7.30;99.90
17891;DHT22;9071;48.220;14.480;2022-11-15T19:43:36;7.30;99.90
17891;DHT22;9071;48.220;14.480;2022-11-15T19:48:38;7.30;99.90
17891;DHT22;9071;48.220;14.480;2022-11-15T19:53:42;7.30;99.90
17891;DHT22;9071;48.220;14.480;2022-11-15T19:58:44;7.30;99.90
17891;DHT22;9071;48.220;14.480;2022-11-15T20:03:47;7.30;99.90
17891;DHT22;9071;48.220;14.480;2022-11-15T20:08:51;7.20;99.90
17891;DHT22;9071;48.220;14.480;2022-11-15T20:13:56;7.20;99.90
17891;DHT22;9071;48.220;14.480;2022-11-15T20:18:58;7.20;99.90
17891;DHT22;9071;48.220;14.480;2022-11-15T20:24:02;7.20;99.90
17891;DHT22;9071;48.220;14.480;2022-11-15T20:29:05;7.20;99.90
17891;DHT22;9071;48.220;14.480;2022-11-15T20:34:08;7.10;99.90
17891;DHT22;9071;48.220;14.480;2022-11-15T20:39:12;7.10;99.90
17891;DHT22;9071;48.220;14.480;2022-11-15T20:44:14;7.10;99.90
17891;DHT22;9071;48.220;14.480;2022-11-15T20:49:16;7.10;99.90
17891;DHT22;9071;48.220;14.480;2022-11-15T20:54:20;7.10;99.90
17891;DHT22;9071;48.220;14.480;2022-11-15T20:59:22;7.00;99.90
17891;DHT22;9071;48.220;14.480;2022-11-15T21:04:24;7.00;99.90
17891;DHT22;9071;48.220;14.480;2022-11-15T21:09:27;6.90;99.90
17891;DHT22;9071;48.220;14.480;2022-11-15T21:14:46;6.90;99.90
17891;DHT22;9071;48.220;14.480;2022-11-15T21:19:50;6.90;99.90
17891;DHT22;9071;48.220;14.480;2022-11-15T21:24:53;6.90;99.90
17891;DHT22;9071;48.220;14.480;2022-11-15T21:29:58;6.90;99.90
17891;DHT22;9071;48.220;14.480;2022-11-15T21:35:00;6.90;99.90
17891;DHT22;9071;48.220;14.480;2022-11-15T21:40:05;6.90;99.90
17891;DHT22;9071;48.220;14.480;2022-11-15T21:45:08;6.90;99.90
17891;DHT22;9071;48.220;14.480;2022-11-15T21:50:10;6.80;99.90
17891;DHT22;9071;48.220;14.480;2022-11-15T21:55:14;6.80;99.90
17891;DHT22;9071;48.220;14.480;2022-11-15T22:00:17;6.80;99.90
17891;DHT22;9071;48.220;14.480;2022-11-15T22:05:36;6.80;99.90
17891;DHT22;9071;48.220;14.480;2022-11-15T22:10:39;6.70;99.90
17891;DHT22;9071;48.220;14.480;2022-11-15T22:15:43;6.80;99.90
17891;DHT22;9071;48.220;14.480;2022-11-15T22:20:52;6.80;99.90
17891;DHT22;9071;48.220;14.480;2022-11-15T22:25:56;6.80;99.90
17891;DHT22;9071;48.220;14.480;2022-11-15T22:30:58;6.80;99.90
17891;DHT22;9071;48.220;14.480;2022-11-15T22:36:01;6.80;99.90
17891;DHT22;9071;48.220;14.480;2022-11-15T22:41:07;6.80;99.90
17891;DHT22;9071;48.220;14.480;2022-11-15T22:46:09;6.80;99.90
17891;DHT22;9071;48.220;14.480;2022-11-15T22:51:14;6.90;99.90
17891;DHT22;9071;48.220;14.480;2022-11-15T22:56:18;6.80;99.90
17891;DHT22;9071;48.220;14.480;2022-11-15T23:01:21;6.70;99.90
17891;DHT22;9071;48.220;14.480;2022-11-15T23:06:23;6.70;99.90
17891;DHT22;9071;48.220;14.480;2022-11-15T23:11:26;6.70;99.90
17891;DHT22;9071;48.220;14.480;2022-11-15T23:16:46;6.80;99.90
17891;DHT22;9071;48.220;14.480;2022-11-15T23:21:48;6.70;99.90
17891;DHT22;9071;48.220;14.480;2022-11-15T23:27:09;6.80;99.90
17891;DHT22;9071;48.220;14.480;2022-11-15T23:32:14;6.70;99.90
17891;DHT22;9071;48.220;14.480;2022-11-15T23:37:34;6.70;99.90
17891;DHT22;9071;48.220;14.480;2022-11-15T23:42:37;6.70;99.90
17891;DHT22;9071;48.220;14.480;2022-11-15T23:47:39;6.70;99.90
17891;DHT22;9071;48.220;14.480;2022-11-15T23:52:41;6.60;99.90
17891;DHT22;9071;48.220;14.480;2022-11-15T23:57:45;6.60;99.90
